Ruby Valley, NV (89833)

10:58 AM PST on December 27, 2014 (GMT -0800)
RAWS RUBY VALLEY NV US | Change Station
CLOSE
Current Station
Personal Weather Station
Location: Lamoille, NV
Elevation: 6899 ft
Nearby Weather Stations

Elev 6899 ft 40.73 °N, 115.25 °W | Updated 55 minutes ago

Clear
Clear
20 °F
Feels Like 13 °F
N
5
Wind Variable Wind from SSW
Gusts 7.0 mph

Today
High -- | Low -- °F
--% Chance of Precip.
Yesterday
High -- | Low -- °F
Precip. -- in
7:03 AM 4:21 PM
Waxing Crescent, 39% visible
Pressure 30.47 in
Visibility 10.0 miles
Clouds Clear
Windchill 13 °F
Dew Point 8 °F
Humidity 58%
Rainfall 0.00 in
Snow Depth Not available.
UV 2 out of 12
Pollen .10 out of 12
Air Quality Not available.
Flu Activity Not available.
METAR KEKO 271756Z AUTO 26004KT 10SM CLR M07/M11 A3034 RMK AO2 SLP318 I6000 T10671106 11067 21122 50003

More Conditions Fewer Conditions

Pressure 30.47 in
Visibility 10.0 miles
Clouds Clear
Windchill 13 °F
Dew Point 8 °F
Humidity 58%
Rainfall 0.00 in
Snow Depth Not available.
UV 2 out of 12
Pollen .10 out of 12
Air Quality Not available.
Flu Activity Not available.
METAR KEKO 271756Z AUTO 26004KT 10SM CLR M07/M11 A3034 RMK AO2 SLP318 I6000 T10671106 11067 21122 50003

More Conditions Fewer Conditions

10-Day Weather Forecast

Almanac

Astronomy

Dec. 27, 2014 Rise Set
Actual Time
Civil Twilight
Nautical Twilight
Astronomical Twilight
Moon
Length of Visible Light
Length of Day
Tomorrow will be .
, % of the Moon is Illuminated

Today's Extremes

State Highs State Lows

Community

WunderPhotos

Upload Photos

1,780,988 photos uploaded!

WunderBlogs® & News

Nearby

Air Quality

  Air Quality AQ Index Pollutant
Not available.

Snow Depth

Station Depth Elevation

Earthquake Activity

City Distance Mag. Time & Date
Minimum magnitude displayed is 2.5.

Coastal Water Temperatures

Place Temperature

Nearby Weather Stations